This is the latest recevied weather packets stored in our database for station/object 9W2CEW-1. If no packets are shown the sender has not sent any weather packets the latest 10 day(s).
| Time | Temp. | Humidity | Pressure | Rain* | Wind** | Luminosity | Snow |
|---|---|---|---|---|---|---|---|
| 1777789147 | 35.56° C | 54% | 1001.6 hPa | - | - | - | - |
| 1777788324 | 37.22° C | 45% | 1002.1 hPa | - | - | - | - |
| 1777788246 | 37.22° C | 45% | 1002.1 hPa | - | - | - | - |
| 1777787463 | 36.67° C | 46% | 1002.6 hPa | - | - | - | - |
| 1777787346 | 36.67° C | 46% | 1002.6 hPa | - | - | - | - |
| 1777786446 | 37.22° C | 47% | 1002.7 hPa | - | - | - | - |
| 1777785546 | 37.78° C | 46% | 1003.3 hPa | - | - | - | - |
| 1777784646 | 36.67° C | 52% | 1003.6 hPa | - | - | - | - |
| 1777783795 | 34.44° C | 60% | 1004 hPa | - | - | - | - |
| 1777783746 | 34.44° C | 60% | 1004 hPa | - | - | - | - |
| 1777782846 | 35° C | 56% | 1004.3 hPa | - | - | - | - |
| 1777782041 | 35.56° C | 54% | 1004.4 hPa | - | - | - | - |
| 1777781946 | 35.56° C | 54% | 1004.4 hPa | - | - | - | - |
| 1777781045 | 36.11° C | 53% | 1004.7 hPa | - | - | - | - |
| 1777780145 | 36.11° C | 51% | 1004.9 hPa | - | - | - | - |
| 1777779315 | 37.22° C | 48% | 1004.9 hPa | - | - | - | - |
| 1777779245 | 37.22° C | 48% | 1004.9 hPa | - | - | - | - |
| 1777778345 | 37.22° C | 48% | 1004.9 hPa | - | - | - | - |
| 1777777679 | 37.78° C | 47% | 1004.8 hPa | - | - | - | - |
| 1777777445 | 37.78° C | 47% | 1004.8 hPa | - | - | - | - |
| 1777776627 | 35° C | 57% | 1004.9 hPa | - | - | - | - |
| 1777776545 | 35° C | 57% | 1004.9 hPa | - | - | - | - |
| 1777775708 | 35.56° C | 57% | 1004.9 hPa | - | - | - | - |
| 1777775645 | 35.56° C | 57% | 1004.9 hPa | - | - | - | - |
| 1777774874 | 36.11° C | 55% | 1004.9 hPa | - | - | - | - |
* Rain since midnight (hover to see other rain measurements)
** Current wind speed in m/s (hover to see current wind gust speed)